createdAt,value
2019-02-08T00:00:41.580Z,1007.1
2019-02-08T00:01:43.082Z,1007.0
2019-02-08T00:02:44.494Z,1007.1
2019-02-08T00:03:45.917Z,1007.1
2019-02-08T00:04:47.562Z,1007.1
2019-02-08T00:05:48.980Z,1007.1
2019-02-08T00:06:51.881Z,1007.1
2019-02-08T00:07:51.891Z,1007.0
2019-02-08T00:08:53.314Z,1007.0
2019-02-08T00:09:54.984Z,1007.1
2019-02-08T00:10:56.413Z,1007.1
2019-02-08T00:11:58.069Z,1007.1
2019-02-08T00:12:59.481Z,1007.1
2019-02-08T00:14:01.151Z,1007.0
2019-02-08T00:15:02.578Z,1007.1
2019-02-08T00:16:04.233Z,1007.2
2019-02-08T00:17:05.615Z,1007.1
2019-02-08T00:18:07.052Z,1007.2
2019-02-08T00:19:08.543Z,1007.2
2019-02-08T00:20:09.999Z,1007.2
2019-02-08T00:21:11.427Z,1007.2
2019-02-08T00:22:13.118Z,1007.2
2019-02-08T00:23:25.969Z,1007.2
2019-02-08T00:24:16.185Z,1007.2
2019-02-08T00:25:17.612Z,1007.3
2019-02-08T00:26:19.252Z,1007.3
2019-02-08T00:27:20.650Z,1007.2
2019-02-08T00:28:22.066Z,1007.3
2019-02-08T00:29:24.645Z,1007.2
2019-02-08T00:30:26.078Z,1007.2
2019-02-08T00:31:27.482Z,1007.3
2019-02-08T00:32:29.137Z,1007.2
2019-02-08T00:33:30.551Z,1007.2
2019-02-08T00:34:32.214Z,1007.2
2019-02-08T00:35:33.617Z,1007.2
2019-02-08T00:36:35.135Z,1007.2
2019-02-08T00:37:36.564Z,1007.2
2019-02-08T00:38:38.150Z,1007.2
2019-02-08T00:39:39.552Z,1007.2
2019-02-08T00:40:41.045Z,1007.2
2019-02-08T00:41:42.437Z,1007.1
2019-02-08T00:42:43.916Z,1007.1
2019-02-08T00:43:45.311Z,1007.1
2019-02-08T00:44:46.783Z,1007.1
2019-02-08T00:45:48.188Z,1007.1
2019-02-08T00:46:49.583Z,1007.1
2019-02-08T00:47:51.108Z,1007.1
2019-02-08T00:48:52.514Z,1007.1
2019-02-08T00:49:53.918Z,1007.2
2019-02-08T00:50:55.822Z,1007.2
2019-02-08T00:51:57.190Z,1007.2
2019-02-08T00:52:58.592Z,1007.2
2019-02-08T00:54:00.167Z,1007.2
2019-02-08T00:55:01.564Z,1007.1
2019-02-08T00:56:02.962Z,1007.1
2019-02-08T00:57:04.520Z,1007.2
2019-02-08T00:58:05.921Z,1007.2
2019-02-08T00:59:07.577Z,1007.2
2019-02-08T01:00:08.979Z,1007.2
2019-02-08T01:01:10.468Z,1007.1
2019-02-08T01:02:11.911Z,1007.2
2019-02-08T01:03:13.339Z,1007.2
2019-02-08T01:04:15.013Z,1007.2
2019-02-08T01:05:16.461Z,1007.2
2019-02-08T01:06:17.887Z,1007.2
2019-02-08T01:07:19.530Z,1007.2
2019-02-08T01:08:20.984Z,1007.1
2019-02-08T01:09:22.613Z,1007.2
2019-02-08T01:10:23.985Z,1007.1
2019-02-08T01:11:25.491Z,1007.2
2019-02-08T01:12:26.899Z,1007.2
2019-02-08T01:13:28.516Z,1007.2
2019-02-08T01:14:29.748Z,1007.2
2019-02-08T01:15:31.255Z,1007.2
2019-02-08T01:16:32.675Z,1007.2
2019-02-08T01:17:34.093Z,1007.3
2019-02-08T01:18:35.565Z,1007.3
2019-02-08T01:19:37.334Z,1007.2
2019-02-08T01:20:38.752Z,1007.3
2019-02-08T01:21:40.334Z,1007.2
2019-02-08T01:22:41.736Z,1007.2
2019-02-08T01:23:43.396Z,1007.2
2019-02-08T01:24:44.851Z,1007.2
2019-02-08T01:25:46.486Z,1007.3
2019-02-08T01:26:47.909Z,1007.3
2019-02-08T01:27:49.354Z,1007.3
2019-02-08T01:28:51.003Z,1007.3
2019-02-08T01:29:52.408Z,1007.4
2019-02-08T01:30:53.811Z,1007.3
2019-02-08T01:31:55.326Z,1007.3
2019-02-08T01:32:56.766Z,1007.3
2019-02-08T01:33:58.398Z,1007.2
2019-02-08T01:34:59.807Z,1007.2
2019-02-08T01:36:01.281Z,1007.3
2019-02-08T01:37:02.754Z,1007.3
2019-02-08T01:38:04.407Z,1007.3
2019-02-08T01:39:05.746Z,1007.3
2019-02-08T01:40:07.249Z,1007.3
2019-02-08T01:41:08.646Z,1007.2
2019-02-08T01:42:10.160Z,1007.3
2019-02-08T01:43:11.556Z,1007.3
2019-02-08T01:44:12.968Z,1007.3
2019-02-08T01:45:14.441Z,1007.3
2019-02-08T01:46:15.841Z,1007.3
2019-02-08T01:47:17.260Z,1007.3
2019-02-08T01:48:18.773Z,1007.3
2019-02-08T01:49:20.546Z,1007.3
2019-02-08T01:50:22.071Z,1007.3
2019-02-08T01:51:23.444Z,1007.3
2019-02-08T01:52:25.317Z,1007.3
2019-02-08T01:53:26.707Z,1007.2
2019-02-08T01:54:28.100Z,1007.2
2019-02-08T01:55:29.671Z,1007.2
2019-02-08T01:56:31.071Z,1007.3
2019-02-08T01:57:32.459Z,1007.2
2019-02-08T01:58:33.986Z,1007.2
2019-02-08T01:59:35.387Z,1007.1
2019-02-08T02:00:36.867Z,1007.1
2019-02-08T02:01:38.273Z,1007.2
2019-02-08T02:02:39.749Z,1007.2
2019-02-08T02:03:41.144Z,1007.2
2019-02-08T02:04:42.636Z,1007.2
2019-02-08T02:05:44.022Z,1007.2
2019-02-08T02:06:45.512Z,1007.2
2019-02-08T02:07:46.905Z,1007.3
2019-02-08T02:08:48.391Z,1007.3
2019-02-08T02:09:49.785Z,1007.2
2019-02-08T02:10:51.274Z,1007.2
2019-02-08T02:11:53.040Z,1007.1
2019-02-08T02:12:54.566Z,1007.2
2019-02-08T02:13:56.351Z,1007.2
2019-02-08T02:14:57.856Z,1007.2
2019-02-08T02:15:59.253Z,1007.2
2019-02-08T02:17:00.736Z,1007.3
2019-02-08T02:18:02.135Z,1007.2
2019-02-08T02:19:03.615Z,1007.2
2019-02-08T02:20:05.013Z,1007.2
2019-02-08T02:21:06.496Z,1007.2
2019-02-08T02:22:07.900Z,1007.2
2019-02-08T02:23:09.286Z,1007.2
2019-02-08T02:24:10.819Z,1007.2
2019-02-08T02:25:12.221Z,1007.2
2019-02-08T02:26:13.638Z,1007.2
2019-02-08T02:27:15.141Z,1007.2
2019-02-08T02:28:16.995Z,1007.2
2019-02-08T02:29:18.368Z,1007.3
2019-02-08T02:30:20.257Z,1007.3
2019-02-08T02:31:21.667Z,1007.2
2019-02-08T02:32:23.059Z,1007.3
2019-02-08T02:33:24.612Z,1007.3
2019-02-08T02:34:26.006Z,1007.2
2019-02-08T02:35:27.489Z,1007.2
2019-02-08T02:36:28.891Z,1007.2
2019-02-08T02:37:30.365Z,1007.2
2019-02-08T02:38:31.769Z,1007.2
2019-02-08T02:39:33.162Z,1007.3
2019-02-08T02:40:34.686Z,1007.3
2019-02-08T02:41:36.089Z,1007.3
2019-02-08T02:42:37.489Z,1007.2
2019-02-08T02:43:39.008Z,1007.2
2019-02-08T02:44:40.491Z,1007.3
2019-02-08T02:45:41.849Z,1007.3
2019-02-08T02:46:43.448Z,1007.4
2019-02-08T02:47:44.797Z,1007.3
2019-02-08T02:48:46.215Z,1007.2
2019-02-08T02:49:47.859Z,1007.3
2019-02-08T02:50:49.305Z,1007.3
2019-02-08T02:51:50.716Z,1007.2
2019-02-08T02:52:52.209Z,1007.3
2019-02-08T02:53:53.622Z,1007.3
2019-02-08T02:54:55.287Z,1007.2
2019-02-08T02:55:56.716Z,1007.3
2019-02-08T02:56:58.391Z,1007.3
2019-02-08T02:57:59.795Z,1007.3
2019-02-08T02:59:01.227Z,1007.2
2019-02-08T03:00:02.882Z,1007.3
2019-02-08T03:01:04.295Z,1007.3
2019-02-08T03:02:05.710Z,1007.2
2019-02-08T03:03:07.212Z,1007.2
2019-02-08T03:04:08.613Z,1007.2
2019-02-08T03:05:10.092Z,1007.1
2019-02-08T03:06:11.470Z,1007.3
2019-02-08T03:07:12.957Z,1007.2
2019-02-08T03:08:14.352Z,1007.2
2019-02-08T03:09:16.866Z,1007.2
2019-02-08T03:10:18.399Z,1007.2
2019-02-08T03:11:19.979Z,1007.2
2019-02-08T03:12:21.438Z,1007.2
2019-02-08T03:13:23.072Z,1007.2
2019-02-08T03:14:24.474Z,1007.2
2019-02-08T03:15:26.134Z,1007.2
2019-02-08T03:16:27.574Z,1007.1
2019-02-08T03:17:29.235Z,1007.1
2019-02-08T03:18:30.666Z,1007.1
2019-02-08T03:19:32.081Z,1007.1
2019-02-08T03:20:33.563Z,1007.2
2019-02-08T03:21:34.994Z,1007.1
2019-02-08T03:22:36.434Z,1007.1
2019-02-08T03:23:38.078Z,1007.0
2019-02-08T03:24:39.505Z,1007.0
2019-02-08T03:25:40.956Z,1007.1
2019-02-08T03:26:42.592Z,1007.1
2019-02-08T03:27:44.000Z,1007.0
2019-02-08T03:28:45.432Z,1007.1
2019-02-08T03:29:47.327Z,1007.1
2019-02-08T03:30:48.731Z,1007.1
2019-02-08T03:31:50.210Z,1007.0
2019-02-08T03:32:51.743Z,1007.0
2019-02-08T03:33:53.308Z,1007.1
2019-02-08T03:34:54.732Z,1007.1
2019-02-08T03:35:56.392Z,1007.1
2019-02-08T03:36:57.834Z,1007.1
2019-02-08T03:37:59.478Z,1007.0
2019-02-08T03:39:01.319Z,1007.0
2019-02-08T03:40:02.953Z,1007.0
2019-02-08T03:41:04.353Z,1006.9
2019-02-08T03:42:05.849Z,1007.0
2019-02-08T03:43:08.172Z,1006.9
2019-02-08T03:44:08.738Z,1007.0
2019-02-08T03:45:10.149Z,1006.9
2019-02-08T03:46:11.590Z,1007.0
2019-02-08T03:47:13.251Z,1006.9
2019-02-08T03:48:14.682Z,1006.9
2019-02-08T03:49:16.078Z,1006.9
2019-02-08T03:50:17.582Z,1006.9
2019-02-08T03:51:18.989Z,1006.9
2019-02-08T03:52:20.456Z,1007.0
2019-02-08T03:53:21.853Z,1006.9
2019-02-08T03:54:23.282Z,1006.9
2019-02-08T03:55:24.839Z,1006.9
2019-02-08T03:56:26.191Z,1007.0
2019-02-08T03:57:27.606Z,1007.0
2019-02-08T03:58:29.087Z,1007.0
2019-02-08T03:59:30.502Z,1007.0
2019-02-08T04:00:31.933Z,1007.0
2019-02-08T04:01:33.436Z,1007.0
2019-02-08T04:02:34.817Z,1006.9
2019-02-08T04:03:36.259Z,1007.0
2019-02-08T04:04:37.737Z,1007.0
2019-02-08T04:05:39.165Z,1006.9
2019-02-08T04:06:40.600Z,1006.9
2019-02-08T04:07:42.050Z,1007.0
2019-02-08T04:08:43.497Z,1006.9
2019-02-08T04:09:44.985Z,1006.9
2019-02-08T04:10:46.583Z,1006.9
2019-02-08T04:11:47.982Z,1006.9
2019-02-08T04:12:49.423Z,1006.9
2019-02-08T04:13:51.317Z,1006.9
2019-02-08T04:14:52.758Z,1007.0
2019-02-08T04:15:54.188Z,1006.8
2019-02-08T04:16:55.849Z,1006.8
2019-02-08T04:17:57.285Z,1006.8
2019-02-08T04:18:58.738Z,1006.9
2019-02-08T04:20:00.572Z,1006.9
2019-02-08T04:21:02.204Z,1006.8
2019-02-08T04:22:03.651Z,1006.9
2019-02-08T04:23:05.524Z,1006.9
2019-02-08T04:24:07.170Z,1006.8
2019-02-08T04:25:08.993Z,1006.8
2019-02-08T04:26:10.411Z,1006.8
2019-02-08T04:27:11.906Z,1006.9
2019-02-08T04:28:13.324Z,1006.9
2019-02-08T04:29:14.726Z,1006.9
2019-02-08T04:30:16.986Z,1006.8
2019-02-08T04:31:18.527Z,1006.9
2019-02-08T04:32:20.096Z,1006.9
2019-02-08T04:33:21.510Z,1006.8
2019-02-08T04:34:22.973Z,1006.8
2019-02-08T04:35:24.457Z,1006.8
2019-02-08T04:36:26.059Z,1006.8
2019-02-08T04:37:27.456Z,1006.8
2019-02-08T04:38:28.936Z,1006.8
2019-02-08T04:39:30.335Z,1006.9
2019-02-08T04:40:31.823Z,1006.8
2019-02-08T04:41:33.218Z,1006.8
2019-02-08T04:42:34.710Z,1006.8
2019-02-08T04:43:36.178Z,1006.8
2019-02-08T04:44:37.811Z,1006.8
2019-02-08T04:45:39.228Z,1006.7
2019-02-08T04:46:40.717Z,1006.7
2019-02-08T04:47:42.168Z,1006.7
2019-02-08T04:48:43.776Z,1006.7
2019-02-08T04:49:45.245Z,1006.8
2019-02-08T04:50:46.680Z,1006.7
2019-02-08T04:51:48.334Z,1006.7
2019-02-08T04:52:49.757Z,1006.8
2019-02-08T04:53:51.212Z,1006.8
2019-02-08T04:54:52.866Z,1006.7
2019-02-08T04:55:54.255Z,1006.7
2019-02-08T04:56:55.771Z,1006.7
2019-02-08T04:57:57.825Z,1006.7
2019-02-08T04:59:01.271Z,1006.6
2019-02-08T05:00:03.631Z,1006.6
2019-02-08T05:01:05.632Z,1006.6
2019-02-08T05:02:07.643Z,1006.7
2019-02-08T05:03:09.280Z,1006.6
2019-02-08T05:04:10.727Z,1006.6
2019-02-08T05:05:12.499Z,1006.6
2019-02-08T05:06:13.940Z,1006.6
2019-02-08T05:07:15.417Z,1006.6
2019-02-08T05:08:16.877Z,1006.6
2019-02-08T05:09:18.354Z,1006.5
2019-02-08T05:10:19.773Z,1006.6
2019-02-08T05:11:21.198Z,1006.6
2019-02-08T05:12:22.822Z,1006.6
2019-02-08T05:13:24.213Z,1006.7
2019-02-08T05:14:25.728Z,1006.7
2019-02-08T05:15:27.179Z,1006.6
2019-02-08T05:16:28.610Z,1006.7
2019-02-08T05:17:30.029Z,1006.7
2019-02-08T05:18:31.937Z,1006.7
2019-02-08T05:19:33.400Z,1006.7
2019-02-08T05:20:34.860Z,1006.7
2019-02-08T05:21:36.423Z,1006.6
2019-02-08T05:22:37.831Z,1006.6
2019-02-08T05:23:39.364Z,1006.6
2019-02-08T05:24:45.880Z,1006.6
2019-02-08T05:25:42.349Z,1006.6
2019-02-08T05:26:43.787Z,1006.5
2019-02-08T05:27:45.259Z,1006.6
2019-02-08T05:28:46.735Z,1006.6
2019-02-08T05:29:48.159Z,1006.5
2019-02-08T05:30:49.780Z,1006.5
2019-02-08T05:31:51.201Z,1006.5
2019-02-08T05:32:52.619Z,1006.5
2019-02-08T05:33:54.140Z,1006.5
2019-02-08T05:34:55.539Z,1006.4
2019-02-08T05:35:56.985Z,1006.4
2019-02-08T05:36:58.429Z,1006.4
2019-02-08T05:37:59.843Z,1006.4
2019-02-08T05:39:01.314Z,1006.4
2019-02-08T05:40:02.761Z,1006.3
2019-02-08T05:41:04.157Z,1006.4
2019-02-08T05:42:05.636Z,1006.4
2019-02-08T05:43:07.442Z,1006.4
2019-02-08T05:44:08.832Z,1006.4
2019-02-08T05:45:10.363Z,1006.4
2019-02-08T05:46:11.769Z,1006.4
2019-02-08T05:47:13.160Z,1006.4
2019-02-08T05:48:14.675Z,1006.5
2019-02-08T05:49:16.072Z,1006.5
2019-02-08T05:50:17.477Z,1006.5
2019-02-08T05:51:19.002Z,1006.4
2019-02-08T05:52:20.413Z,1006.4
2019-02-08T05:53:21.880Z,1006.4
2019-02-08T05:54:23.279Z,1006.5
2019-02-08T05:55:24.768Z,1006.5
2019-02-08T05:56:26.175Z,1006.5
2019-02-08T05:57:28.987Z,1006.4
2019-02-08T05:58:28.996Z,1006.3
2019-02-08T05:59:30.546Z,1006.4
2019-02-08T06:00:31.946Z,1006.4
2019-02-08T06:01:33.342Z,1006.4
2019-02-08T06:02:34.844Z,1006.4
2019-02-08T06:03:36.236Z,1006.3
2019-02-08T06:04:37.636Z,1006.3
2019-02-08T06:05:39.207Z,1006.3
2019-02-08T06:06:40.636Z,1006.3
2019-02-08T06:07:42.050Z,1006.3
2019-02-08T06:08:43.480Z,1006.3
2019-02-08T06:09:44.876Z,1006.3
2019-02-08T06:10:46.269Z,1006.3
2019-02-08T06:11:47.819Z,1006.3
2019-02-08T06:12:49.237Z,1006.3
2019-02-08T06:13:50.640Z,1006.3
2019-02-08T06:14:52.133Z,1006.3
2019-02-08T06:15:53.528Z,1006.2
2019-02-08T06:16:54.921Z,1006.3
2019-02-08T06:17:56.444Z,1006.2
2019-02-08T06:18:57.840Z,1006.3
2019-02-08T06:19:59.234Z,1006.3
2019-02-08T06:21:00.768Z,1006.4
2019-02-08T06:22:02.166Z,1006.3
2019-02-08T06:23:03.793Z,1006.3
2019-02-08T06:24:05.292Z,1006.3
2019-02-08T06:25:06.844Z,1006.3
2019-02-08T06:26:08.260Z,1006.3
2019-02-08T06:27:09.809Z,1006.2
2019-02-08T06:28:11.214Z,1006.2
2019-02-08T06:29:12.613Z,1006.3
2019-02-08T06:30:15.046Z,1006.3
2019-02-08T06:31:16.442Z,1006.3
2019-02-08T06:32:17.835Z,1006.2
2019-02-08T06:33:19.280Z,1006.3
2019-02-08T06:34:21.055Z,1006.3
2019-02-08T06:35:22.463Z,1006.3
2019-02-08T06:36:24.009Z,1006.2
2019-02-08T06:37:25.406Z,1006.2
2019-02-08T06:38:26.899Z,1006.3
2019-02-08T06:39:28.291Z,1006.3
2019-02-08T06:40:29.773Z,1006.3
2019-02-08T06:41:31.168Z,1006.3
2019-02-08T06:42:32.581Z,1006.2
2019-02-08T06:43:34.093Z,1006.3
2019-02-08T06:44:35.496Z,1006.2
2019-02-08T06:45:36.887Z,1006.3
2019-02-08T06:46:38.413Z,1006.3
2019-02-08T06:47:39.810Z,1006.2
2019-02-08T06:48:41.207Z,1006.2
2019-02-08T06:49:42.737Z,1006.3
2019-02-08T06:50:44.132Z,1006.3
2019-02-08T06:51:45.528Z,1006.3
2019-02-08T06:52:47.060Z,1006.3
2019-02-08T06:53:48.452Z,1006.3
2019-02-08T06:54:49.856Z,1006.3
2019-02-08T06:55:53.827Z,1006.3
2019-02-08T06:56:52.737Z,1006.3
2019-02-08T06:57:54.434Z,1006.4
2019-02-08T06:58:55.833Z,1006.3
2019-02-08T06:59:57.344Z,1006.3
2019-02-08T07:00:58.738Z,1006.3
2019-02-08T07:02:00.225Z,1006.3
2019-02-08T07:03:01.625Z,1006.3
2019-02-08T07:04:03.106Z,1006.3
2019-02-08T07:05:04.505Z,1006.3
2019-02-08T07:06:05.989Z,1006.3
2019-02-08T07:07:07.386Z,1006.5
2019-02-08T07:08:08.781Z,1006.4
2019-02-08T07:09:10.310Z,1006.4
2019-02-08T07:10:11.716Z,1006.4
2019-02-08T07:11:13.140Z,1006.4
2019-02-08T07:12:14.630Z,1006.4
2019-02-08T07:13:16.023Z,1006.4
2019-02-08T07:14:17.518Z,1006.5
2019-02-08T07:15:18.907Z,1006.4
2019-02-08T07:16:20.398Z,1006.4
2019-02-08T07:17:21.791Z,1006.4
2019-02-08T07:18:23.187Z,1006.3
2019-02-08T07:19:24.719Z,1006.3
2019-02-08T07:20:26.116Z,1006.4
2019-02-08T07:21:27.508Z,1006.4
2019-02-08T07:22:29.041Z,1006.4
2019-02-08T07:23:30.432Z,1006.3
2019-02-08T07:24:31.918Z,1006.4
2019-02-08T07:25:33.343Z,1006.3
2019-02-08T07:26:34.803Z,1006.4
2019-02-08T07:27:36.198Z,1006.4
2019-02-08T07:28:37.592Z,1006.4
2019-02-08T07:29:39.124Z,1006.3
2019-02-08T07:30:40.565Z,1006.3
2019-02-08T07:31:41.920Z,1006.4
2019-02-08T07:32:43.444Z,1006.4
2019-02-08T07:33:44.843Z,1006.3
2019-02-08T07:34:46.239Z,1006.4
2019-02-08T07:35:47.765Z,1006.3
2019-02-08T07:36:49.170Z,1006.4
2019-02-08T07:37:50.564Z,1006.3
2019-02-08T07:38:52.111Z,1006.4
2019-02-08T07:39:53.510Z,1006.3
2019-02-08T07:40:54.972Z,1006.3
2019-02-08T07:41:56.375Z,1006.3
2019-02-08T07:42:57.853Z,1006.3
2019-02-08T07:43:59.251Z,1006.4
2019-02-08T07:45:00.732Z,1006.5
2019-02-08T07:46:02.134Z,1006.4
2019-02-08T07:47:03.799Z,1006.4
2019-02-08T07:48:05.192Z,1006.4
2019-02-08T07:49:06.593Z,1006.4
2019-02-08T07:50:08.557Z,1006.4
2019-02-08T07:51:09.956Z,1006.4
2019-02-08T07:52:11.399Z,1006.4
2019-02-08T07:53:12.888Z,1006.4
2019-02-08T07:54:14.288Z,1006.4
2019-02-08T07:55:15.695Z,1006.4
2019-02-08T07:56:17.290Z,1006.4
2019-02-08T07:57:18.688Z,1006.4
2019-02-08T07:58:20.083Z,1006.4
2019-02-08T07:59:21.514Z,1006.5
2019-02-08T08:00:22.961Z,1006.4
2019-02-08T08:01:24.393Z,1006.3
2019-02-08T08:02:25.793Z,1006.3
2019-02-08T08:03:27.275Z,1006.4
2019-02-08T08:04:28.671Z,1006.4
2019-02-08T08:05:30.153Z,1006.4
2019-02-08T08:06:31.930Z,1006.4
2019-02-08T08:07:33.328Z,1006.3
2019-02-08T08:08:34.908Z,1006.3
2019-02-08T08:09:36.697Z,1006.3
2019-02-08T08:10:38.105Z,1006.3
2019-02-08T08:11:39.616Z,1006.3
2019-02-08T08:12:41.049Z,1006.3
2019-02-08T08:13:42.449Z,1006.3
2019-02-08T08:14:43.955Z,1006.2
2019-02-08T08:15:45.337Z,1006.3
2019-02-08T08:16:46.817Z,1006.3
2019-02-08T08:17:48.216Z,1006.3
2019-02-08T08:18:49.610Z,1006.3
2019-02-08T08:19:51.259Z,1006.3
2019-02-08T08:20:52.678Z,1006.4
2019-02-08T08:21:54.078Z,1006.3
2019-02-08T08:22:55.662Z,1006.3
2019-02-08T08:23:57.068Z,1006.3
2019-02-08T08:24:58.423Z,1006.3
2019-02-08T08:25:59.982Z,1006.2
2019-02-08T08:27:01.385Z,1006.2
2019-02-08T08:28:02.782Z,1006.2
2019-02-08T08:29:04.308Z,1006.3
2019-02-08T08:30:05.707Z,1006.2
2019-02-08T08:31:07.109Z,1006.3
2019-02-08T08:32:08.634Z,1006.3
2019-02-08T08:33:10.030Z,1006.3
2019-02-08T08:34:11.425Z,1006.3
2019-02-08T08:35:13.330Z,1006.3
2019-02-08T08:36:14.732Z,1006.3
2019-02-08T08:37:16.139Z,1006.3
2019-02-08T08:38:17.679Z,1006.2
2019-02-08T08:39:19.176Z,1006.3
2019-02-08T08:40:20.568Z,1006.3
2019-02-08T08:41:22.001Z,1006.2
2019-02-08T08:42:23.400Z,1006.3
2019-02-08T08:43:24.800Z,1006.2
2019-02-08T08:44:26.427Z,1006.2
2019-02-08T08:45:27.927Z,1006.2
2019-02-08T08:46:29.704Z,1006.2
2019-02-08T08:47:31.361Z,1006.2
2019-02-08T08:48:32.758Z,1006.2
2019-02-08T08:49:35.178Z,1006.1
2019-02-08T08:50:36.582Z,1006.1
2019-02-08T08:51:38.146Z,1006.2
2019-02-08T08:52:39.856Z,1006.2
2019-02-08T08:53:41.494Z,1006.1
2019-02-08T08:54:42.886Z,1006.2
2019-02-08T08:55:44.524Z,1006.1
2019-02-08T08:56:45.924Z,1006.2
2019-02-08T08:57:47.323Z,1006.2
2019-02-08T08:58:48.912Z,1006.2
2019-02-08T08:59:50.685Z,1006.2
2019-02-08T09:00:52.086Z,1006.0
2019-02-08T09:01:53.780Z,1006.2
2019-02-08T09:02:55.178Z,1006.2
2019-02-08T09:03:56.580Z,1006.2
2019-02-08T09:04:58.158Z,1006.2
2019-02-08T09:05:59.565Z,1006.1
2019-02-08T09:07:01.188Z,1006.1
2019-02-08T09:08:02.588Z,1006.1
2019-02-08T09:09:04.273Z,1006.0
2019-02-08T09:10:05.718Z,1006.1
2019-02-08T09:11:07.358Z,1006.1
2019-02-08T09:12:08.832Z,1006.1
2019-02-08T09:13:14.973Z,1006.0
2019-02-08T09:14:12.274Z,1006.1
2019-02-08T09:15:14.050Z,1006.0
2019-02-08T09:16:15.583Z,1006.0
2019-02-08T09:17:16.984Z,1006.1
2019-02-08T09:18:18.759Z,1006.1
2019-02-08T09:19:20.317Z,1006.1
2019-02-08T09:20:21.717Z,1006.2
2019-02-08T09:21:23.120Z,1006.1
2019-02-08T09:22:24.639Z,1006.0
2019-02-08T09:23:26.042Z,1006.0
2019-02-08T09:24:27.446Z,1006.0
2019-02-08T09:25:29.166Z,1006.0
2019-02-08T09:26:30.569Z,1005.9
2019-02-08T09:27:32.251Z,1006.0
2019-02-08T09:28:33.658Z,1006.0
2019-02-08T09:29:35.127Z,1006.0
2019-02-08T09:30:36.774Z,1006.0
2019-02-08T09:31:38.180Z,1006.0
2019-02-08T09:32:39.582Z,1005.9
2019-02-08T09:33:41.705Z,1005.8
2019-02-08T09:34:43.111Z,1005.9
2019-02-08T09:35:44.511Z,1005.9
2019-02-08T09:36:47.537Z,1005.9
2019-02-08T09:37:47.603Z,1005.9
2019-02-08T09:38:49.008Z,1006.0
2019-02-08T09:39:50.561Z,1006.0
2019-02-08T09:40:51.965Z,1006.0
2019-02-08T09:41:53.650Z,1005.9
2019-02-08T09:42:55.118Z,1005.9
2019-02-08T09:43:56.518Z,1005.9
2019-02-08T09:44:58.176Z,1005.9
2019-02-08T09:45:59.580Z,1005.9
2019-02-08T09:47:00.982Z,1006.0
2019-02-08T09:48:02.703Z,1006.0
2019-02-08T09:49:04.113Z,1006.0
2019-02-08T09:50:05.558Z,1006.0
2019-02-08T09:51:07.230Z,1006.0
2019-02-08T09:52:08.636Z,1005.9
2019-02-08T09:53:10.036Z,1005.8
2019-02-08T09:54:11.753Z,1005.9
2019-02-08T09:55:13.536Z,1005.9
2019-02-08T09:56:14.937Z,1005.8
2019-02-08T09:57:16.486Z,1005.8
2019-02-08T09:58:17.892Z,1005.8
2019-02-08T09:59:19.289Z,1005.9
2019-02-08T10:00:21.008Z,1005.8
2019-02-08T10:01:22.426Z,1005.8
2019-02-08T10:02:24.094Z,1005.9
2019-02-08T10:03:25.506Z,1005.8
2019-02-08T10:04:26.905Z,1005.8
2019-02-08T10:05:28.623Z,1005.8
2019-02-08T10:06:30.023Z,1005.8
2019-02-08T10:07:31.438Z,1005.8
2019-02-08T10:08:33.162Z,1005.8
2019-02-08T10:09:34.570Z,1005.9
2019-02-08T10:10:35.982Z,1005.8
2019-02-08T10:11:38.126Z,1005.8
2019-02-08T10:12:39.525Z,1005.8
2019-02-08T10:13:40.930Z,1005.9
2019-02-08T10:14:42.612Z,1005.7
2019-02-08T10:15:44.101Z,1005.8
2019-02-08T10:16:45.715Z,1005.7
2019-02-08T10:17:47.125Z,1005.7
2019-02-08T10:18:48.787Z,1005.7
2019-02-08T10:19:50.586Z,1005.8
2019-02-08T10:20:53.988Z,1005.7
2019-02-08T10:21:53.644Z,1005.7
2019-02-08T10:22:55.387Z,1005.6
2019-02-08T10:23:56.761Z,1005.6
2019-02-08T10:24:58.448Z,1005.7
2019-02-08T10:26:05.304Z,1005.6
2019-02-08T10:27:01.221Z,1005.6
2019-02-08T10:28:02.775Z,1005.7
2019-02-08T10:29:04.175Z,1005.6
2019-02-08T10:30:05.575Z,1005.7
2019-02-08T10:31:07.297Z,1005.6
2019-02-08T10:32:09.082Z,1005.6
2019-02-08T10:33:10.482Z,1005.5
2019-02-08T10:34:12.031Z,1005.6
2019-02-08T10:35:13.429Z,1005.7
2019-02-08T10:36:15.114Z,1005.6
2019-02-08T10:37:16.517Z,1005.6
2019-02-08T10:38:18.213Z,1005.7
2019-02-08T10:39:19.605Z,1005.7
2019-02-08T10:40:21.081Z,1005.6
2019-02-08T10:41:22.485Z,1005.6
2019-02-08T10:42:23.964Z,1005.6
2019-02-08T10:43:25.375Z,1005.7
2019-02-08T10:44:26.813Z,1005.7
2019-02-08T10:45:28.283Z,1005.7
2019-02-08T10:46:29.688Z,1005.6
2019-02-08T10:47:31.092Z,1005.7
2019-02-08T10:48:32.604Z,1005.7
2019-02-08T10:49:34.005Z,1005.6
2019-02-08T10:50:35.410Z,1005.6
2019-02-08T10:51:36.927Z,1005.6
2019-02-08T10:52:38.368Z,1005.6
2019-02-08T10:53:39.773Z,1005.7
2019-02-08T10:54:41.450Z,1005.6
2019-02-08T10:55:43.116Z,1005.6
2019-02-08T10:56:44.742Z,1005.7
2019-02-08T10:57:46.175Z,1005.7
2019-02-08T10:58:47.837Z,1005.6
2019-02-08T10:59:49.235Z,1005.7
2019-02-08T11:00:50.915Z,1005.5
2019-02-08T11:01:52.682Z,1005.5
2019-02-08T11:02:54.613Z,1005.4
2019-02-08T11:03:56.016Z,1005.4
2019-02-08T11:04:57.425Z,1005.4
2019-02-08T11:05:59.139Z,1005.4
2019-02-08T11:07:00.542Z,1005.3
2019-02-08T11:08:01.948Z,1005.4
2019-02-08T11:09:03.669Z,1005.4
2019-02-08T11:10:05.084Z,1005.4
2019-02-08T11:11:06.485Z,1005.3
2019-02-08T11:12:08.191Z,1005.3
2019-02-08T11:13:09.595Z,1005.3
2019-02-08T11:14:10.996Z,1005.3
2019-02-08T11:15:12.510Z,1005.3
2019-02-08T11:16:13.915Z,1005.3
2019-02-08T11:17:15.319Z,1005.3
2019-02-08T11:18:16.836Z,1005.2
2019-02-08T11:19:18.239Z,1005.1
2019-02-08T11:20:19.630Z,1005.1
2019-02-08T11:21:21.204Z,1005.2
2019-02-08T11:22:23.072Z,1005.1
2019-02-08T11:23:24.479Z,1005.1
2019-02-08T11:24:25.885Z,1005.2
2019-02-08T11:25:27.298Z,1005.2
2019-02-08T11:26:28.998Z,1005.1
2019-02-08T11:27:30.408Z,1005.2
2019-02-08T11:28:31.889Z,1005.1
2019-02-08T11:29:33.512Z,1005.1
2019-02-08T11:30:34.904Z,1005.0
2019-02-08T11:31:36.311Z,1004.9
2019-02-08T11:32:43.295Z,1005.0
2019-02-08T11:33:40.153Z,1004.9
2019-02-08T11:34:41.981Z,1005.0
2019-02-08T11:35:43.573Z,1004.9
2019-02-08T11:36:44.994Z,1004.9
2019-02-08T11:37:46.409Z,1004.9
2019-02-08T11:38:48.108Z,1004.9
2019-02-08T11:39:49.544Z,1005.0
2019-02-08T11:40:50.946Z,1004.9
2019-02-08T11:41:52.627Z,1004.9
2019-02-08T11:42:54.030Z,1005.0
2019-02-08T11:43:55.436Z,1004.8
2019-02-08T11:44:56.946Z,1004.9
2019-02-08T11:45:58.351Z,1004.9
2019-02-08T11:46:59.754Z,1004.9
2019-02-08T11:48:01.270Z,1004.9
2019-02-08T11:49:02.673Z,1004.8
2019-02-08T11:50:04.078Z,1004.9
2019-02-08T11:51:05.608Z,1004.8
2019-02-08T11:52:07.019Z,1004.9
2019-02-08T11:53:08.673Z,1004.7
2019-02-08T11:54:10.078Z,1004.8
2019-02-08T11:55:11.764Z,1004.8
2019-02-08T11:56:13.546Z,1004.8
2019-02-08T11:57:15.256Z,1004.7
2019-02-08T11:58:16.662Z,1004.7
2019-02-08T11:59:18.428Z,1004.7
2019-02-08T12:00:19.864Z,1004.7
2019-02-08T12:01:21.428Z,1004.7
2019-02-08T12:02:22.829Z,1004.6
2019-02-08T12:03:24.525Z,1004.6
2019-02-08T12:04:25.941Z,1004.7
2019-02-08T12:05:27.599Z,1004.6
2019-02-08T12:06:29.017Z,1004.6
2019-02-08T12:07:30.429Z,1004.6
2019-02-08T12:08:32.138Z,1004.6
2019-02-08T12:09:33.543Z,1004.6
2019-02-08T12:10:34.945Z,1004.6
2019-02-08T12:11:36.674Z,1004.5
2019-02-08T12:12:38.069Z,1004.5
2019-02-08T12:13:39.526Z,1004.5
2019-02-08T12:14:41.178Z,1004.5
2019-02-08T12:15:43.529Z,1004.5
2019-02-08T12:16:44.904Z,1004.5
2019-02-08T12:17:46.526Z,1004.5
2019-02-08T12:18:47.929Z,1004.5
2019-02-08T12:19:49.675Z,1004.4
2019-02-08T12:20:51.080Z,1004.5
2019-02-08T12:21:52.484Z,1004.4
2019-02-08T12:22:54.138Z,1004.3
2019-02-08T12:23:55.542Z,1004.4
2019-02-08T12:24:56.944Z,1004.3
2019-02-08T12:25:58.457Z,1004.3
2019-02-08T12:26:59.900Z,1004.3
2019-02-08T12:28:01.545Z,1004.2
2019-02-08T12:29:02.952Z,1004.3
2019-02-08T12:30:04.640Z,1004.2
2019-02-08T12:31:06.037Z,1004.2
2019-02-08T12:32:07.441Z,1004.1
2019-02-08T12:33:08.956Z,1004.2
2019-02-08T12:34:10.957Z,1004.2
2019-02-08T12:35:12.361Z,1004.1
2019-02-08T12:36:13.887Z,1004.1
2019-02-08T12:37:15.288Z,1004.1
2019-02-08T12:38:16.697Z,1004.1
2019-02-08T12:39:18.118Z,1004.1
2019-02-08T12:40:19.525Z,1004.1
2019-02-08T12:41:20.932Z,1004.1
2019-02-08T12:42:22.552Z,1004.1
2019-02-08T12:43:23.942Z,1003.9
2019-02-08T12:44:25.376Z,1003.9
2019-02-08T12:45:27.059Z,1003.9
2019-02-08T12:46:28.463Z,1003.9
2019-02-08T12:47:30.141Z,1003.9